createdAt,value
2018-11-10T00:00:08.861Z,992.91
2018-11-10T00:01:08.849Z,992.89
2018-11-10T00:02:08.851Z,992.86
2018-11-10T00:03:08.831Z,992.93
2018-11-10T00:04:08.842Z,992.82
2018-11-10T00:05:08.820Z,992.85
2018-11-10T00:06:08.792Z,992.79
2018-11-10T00:07:08.784Z,992.81
2018-11-10T00:08:08.830Z,992.80
2018-11-10T00:09:08.784Z,992.84
2018-11-10T00:10:08.750Z,992.78
2018-11-10T00:11:08.745Z,992.78
2018-11-10T00:12:08.806Z,992.69
2018-11-10T00:13:08.737Z,992.70
2018-11-10T00:14:08.730Z,992.77
2018-11-10T00:15:08.705Z,992.73
2018-11-10T00:16:08.694Z,992.73
2018-11-10T00:17:08.686Z,992.75
2018-11-10T00:18:08.663Z,992.71
2018-11-10T00:19:08.656Z,992.68
2018-11-10T00:20:08.662Z,992.67
2018-11-10T00:21:08.629Z,992.66
2018-11-10T00:22:08.634Z,992.61
2018-11-10T00:23:08.615Z,992.63
2018-11-10T00:24:08.613Z,992.63
2018-11-10T00:25:08.617Z,992.61
2018-11-10T00:26:08.586Z,992.59
2018-11-10T00:27:08.573Z,992.61
2018-11-10T00:28:08.562Z,992.59
2018-11-10T00:29:08.561Z,992.48
2018-11-10T00:30:08.550Z,992.45
2018-11-10T00:31:08.528Z,992.39
2018-11-10T00:32:08.514Z,992.39
2018-11-10T00:33:08.503Z,992.41
2018-11-10T00:34:08.499Z,992.41
2018-11-10T00:35:08.485Z,992.45
2018-11-10T00:36:08.485Z,992.48
2018-11-10T00:37:08.472Z,992.40
2018-11-10T00:38:08.448Z,992.43
2018-11-10T00:39:08.441Z,992.41
2018-11-10T00:40:08.431Z,992.47
2018-11-10T00:41:08.443Z,992.44
2018-11-10T00:42:08.405Z,992.45
2018-11-10T00:43:08.394Z,992.42
2018-11-10T00:44:08.387Z,992.46
2018-11-10T00:45:08.374Z,992.37
2018-11-10T00:46:08.385Z,992.41
2018-11-10T00:47:08.366Z,992.45
2018-11-10T00:48:08.348Z,992.34
2018-11-10T00:49:08.351Z,992.41
2018-11-10T00:50:08.318Z,992.43
2018-11-10T00:51:08.321Z,992.46
2018-11-10T00:52:08.305Z,992.48
2018-11-10T00:53:08.284Z,992.46
2018-11-10T00:54:08.283Z,992.47
2018-11-10T00:55:08.267Z,992.44
2018-11-10T00:56:08.264Z,992.43
2018-11-10T00:57:08.242Z,992.30
2018-11-10T00:58:08.277Z,992.30
2018-11-10T00:59:08.236Z,992.41
2018-11-10T01:00:08.215Z,992.26
2018-11-10T01:01:08.221Z,992.32
2018-11-10T01:02:08.210Z,992.32
2018-11-10T01:03:08.186Z,992.32
2018-11-10T01:04:08.167Z,992.42
2018-11-10T01:05:08.162Z,992.40
2018-11-10T01:06:08.157Z,992.35
2018-11-10T01:07:08.152Z,992.29
2018-11-10T01:08:08.129Z,992.34
2018-11-10T01:09:08.127Z,992.34
2018-11-10T01:10:08.100Z,992.24
2018-11-10T01:11:08.116Z,992.23
2018-11-10T01:12:08.669Z,992.20
2018-11-10T01:13:08.093Z,992.22
2018-11-10T01:14:08.075Z,992.15
2018-11-10T01:15:08.649Z,992.20
2018-11-10T01:16:08.108Z,992.22
2018-11-10T01:17:08.082Z,992.22
2018-11-10T01:18:08.104Z,992.21
2018-11-10T01:19:08.042Z,992.17
2018-11-10T01:20:08.000Z,992.11
2018-11-10T01:21:08.083Z,992.10
2018-11-10T01:22:07.981Z,992.07
2018-11-10T01:23:07.961Z,992.10
2018-11-10T01:24:07.965Z,992.10
2018-11-10T01:25:07.944Z,992.10
2018-11-10T01:26:07.934Z,992.07
2018-11-10T01:27:07.928Z,992.13
2018-11-10T01:28:07.908Z,992.10
2018-11-10T01:29:07.908Z,992.05
2018-11-10T01:30:07.903Z,992.10
2018-11-10T01:31:07.880Z,992.12
2018-11-10T01:32:07.874Z,992.12
2018-11-10T01:33:07.861Z,992.13
2018-11-10T01:34:07.860Z,992.12
2018-11-10T01:35:07.854Z,992.14
2018-11-10T01:36:07.825Z,992.17
2018-11-10T01:37:07.813Z,992.17
2018-11-10T01:38:07.806Z,992.12
2018-11-10T01:39:07.799Z,992.09
2018-11-10T01:40:07.801Z,992.09
2018-11-10T01:41:07.784Z,992.07
2018-11-10T01:42:07.759Z,992.05
2018-11-10T01:43:07.763Z,992.02
2018-11-10T01:44:07.763Z,992.00
2018-11-10T01:45:07.728Z,991.93
2018-11-10T01:46:07.711Z,992.01
2018-11-10T01:47:07.704Z,991.93
2018-11-10T01:48:07.716Z,991.96
2018-11-10T01:49:07.677Z,991.96
2018-11-10T01:50:07.675Z,991.84
2018-11-10T01:51:07.670Z,991.89
2018-11-10T01:52:07.654Z,991.85
2018-11-10T01:53:07.647Z,991.80
2018-11-10T01:54:07.634Z,991.74
2018-11-10T01:55:07.614Z,991.71
2018-11-10T01:56:07.605Z,991.70
2018-11-10T01:57:07.610Z,991.67
2018-11-10T01:58:07.590Z,991.67
2018-11-10T01:59:07.589Z,991.70
2018-11-10T02:00:07.562Z,991.68
2018-11-10T02:01:07.561Z,991.63
2018-11-10T02:02:07.549Z,991.61
2018-11-10T02:03:07.533Z,991.60
2018-11-10T02:04:07.534Z,991.63
2018-11-10T02:05:07.525Z,991.59
2018-11-10T02:06:07.496Z,991.47
2018-11-10T02:07:07.516Z,991.46
2018-11-10T02:08:07.474Z,991.47
2018-11-10T02:09:07.475Z,991.50
2018-11-10T02:10:07.459Z,991.49
2018-11-10T02:11:07.448Z,991.55
2018-11-10T02:12:07.435Z,991.45
2018-11-10T02:13:07.431Z,991.53
2018-11-10T02:14:07.421Z,991.45
2018-11-10T02:15:07.408Z,991.41
2018-11-10T02:16:07.391Z,991.41
2018-11-10T02:17:07.386Z,991.41
2018-11-10T02:18:07.367Z,991.35
2018-11-10T02:19:07.356Z,991.41
2018-11-10T02:20:07.375Z,991.42
2018-11-10T02:21:07.347Z,991.43
2018-11-10T02:22:07.331Z,991.47
2018-11-10T02:23:07.319Z,991.40
2018-11-10T02:24:07.309Z,991.40
2018-11-10T02:25:07.296Z,991.41
2018-11-10T02:26:07.295Z,991.37
2018-11-10T02:27:07.276Z,991.39
2018-11-10T02:28:07.261Z,991.39
2018-11-10T02:29:07.247Z,991.41
2018-11-10T02:30:07.267Z,991.50
2018-11-10T02:31:07.229Z,991.37
2018-11-10T02:32:07.219Z,991.37
2018-11-10T02:33:07.636Z,991.31
2018-11-10T02:34:08.124Z,991.34
2018-11-10T02:35:07.196Z,991.33
2018-11-10T02:36:07.228Z,991.33
2018-11-10T02:37:07.232Z,991.32
2018-11-10T02:38:07.213Z,991.35
2018-11-10T02:39:07.209Z,991.30
2018-11-10T02:40:07.207Z,991.16
2018-11-10T02:41:07.116Z,991.20
2018-11-10T02:42:07.114Z,991.13
2018-11-10T02:43:07.115Z,991.17
2018-11-10T02:44:07.088Z,991.09
2018-11-10T02:45:07.095Z,991.05
2018-11-10T02:46:07.062Z,991.03
2018-11-10T02:47:07.056Z,991.05
2018-11-10T02:48:07.046Z,991.04
2018-11-10T02:49:07.050Z,990.99
2018-11-10T02:50:07.017Z,991.07
2018-11-10T02:51:07.026Z,990.99
2018-11-10T02:52:07.016Z,991.03
2018-11-10T02:53:07.022Z,990.97
2018-11-10T02:54:06.999Z,990.99
2018-11-10T02:55:06.969Z,990.91
2018-11-10T02:56:06.961Z,990.95
2018-11-10T02:57:06.951Z,990.94
2018-11-10T02:58:06.931Z,990.91
2018-11-10T02:59:06.927Z,990.88
2018-11-10T03:00:06.935Z,990.86
2018-11-10T03:01:06.914Z,990.84
2018-11-10T03:02:06.909Z,990.84
2018-11-10T03:03:06.885Z,990.81
2018-11-10T03:04:06.874Z,990.75
2018-11-10T03:05:06.871Z,990.76
2018-11-10T03:06:07.777Z,990.77
2018-11-10T03:07:06.838Z,990.73
2018-11-10T03:08:06.841Z,990.71
2018-11-10T03:09:06.828Z,990.75
2018-11-10T03:10:06.802Z,990.72
2018-11-10T03:11:06.797Z,990.67
2018-11-10T03:12:06.799Z,990.69
2018-11-10T03:13:06.768Z,990.67
2018-11-10T03:14:06.771Z,990.60
2018-11-10T03:15:06.759Z,990.55
2018-11-10T03:16:06.762Z,990.58
2018-11-10T03:17:06.754Z,990.60
2018-11-10T03:18:06.724Z,990.60
2018-11-10T03:19:06.706Z,990.60
2018-11-10T03:20:06.698Z,990.61
2018-11-10T03:21:06.691Z,990.54
2018-11-10T03:22:06.679Z,990.57
2018-11-10T03:23:06.686Z,990.57
2018-11-10T03:24:06.657Z,990.59
2018-11-10T03:25:06.637Z,990.58
2018-11-10T03:26:06.635Z,990.52
2018-11-10T03:27:06.625Z,990.56
2018-11-10T03:28:06.612Z,990.54
2018-11-10T03:29:06.638Z,990.63
2018-11-10T03:30:06.591Z,990.64
2018-11-10T03:31:06.578Z,990.55
2018-11-10T03:32:06.573Z,990.61
2018-11-10T03:33:06.556Z,990.56
2018-11-10T03:34:06.567Z,990.62
2018-11-10T03:35:06.540Z,990.57
2018-11-10T03:36:06.528Z,990.52
2018-11-10T03:37:06.510Z,990.55
2018-11-10T03:38:06.506Z,990.53
2018-11-10T03:39:06.521Z,990.56
2018-11-10T03:40:06.484Z,990.64
2018-11-10T03:41:06.473Z,990.58
2018-11-10T03:42:06.455Z,990.62
2018-11-10T03:43:06.447Z,990.65
2018-11-10T03:44:06.453Z,990.64
2018-11-10T03:45:06.427Z,990.63
2018-11-10T03:46:06.417Z,990.66
2018-11-10T03:47:06.413Z,990.70
2018-11-10T03:48:06.400Z,990.67
2018-11-10T03:49:06.397Z,990.68
2018-11-10T03:50:06.374Z,990.61
2018-11-10T03:51:06.359Z,990.65
2018-11-10T03:52:06.373Z,990.60
2018-11-10T03:53:06.341Z,990.55
2018-11-10T03:54:06.341Z,990.67
2018-11-10T03:55:06.319Z,990.65
2018-11-10T03:56:06.309Z,990.58
2018-11-10T03:57:06.299Z,990.56
2018-11-10T03:58:06.291Z,990.61
2018-11-10T03:59:06.363Z,990.65
2018-11-10T04:00:06.275Z,990.61
2018-11-10T04:01:06.263Z,990.61
2018-11-10T04:02:06.265Z,990.59
2018-11-10T04:03:06.229Z,990.55
2018-11-10T04:04:06.220Z,990.57
2018-11-10T04:05:06.220Z,990.53
2018-11-10T04:06:06.552Z,990.50
2018-11-10T04:07:06.194Z,990.51
2018-11-10T04:08:06.181Z,990.52
2018-11-10T04:09:06.167Z,990.55
2018-11-10T04:10:06.176Z,990.45
2018-11-10T04:11:06.150Z,990.48
2018-11-10T04:12:06.140Z,990.39
2018-11-10T04:13:06.133Z,990.36
2018-11-10T04:14:06.112Z,990.35
2018-11-10T04:15:06.132Z,990.35
2018-11-10T04:16:06.087Z,990.35
2018-11-10T04:17:06.088Z,990.34
2018-11-10T04:18:06.076Z,990.28
2018-11-10T04:19:06.067Z,990.29
2018-11-10T04:20:06.055Z,990.31
2018-11-10T04:21:06.059Z,990.33
2018-11-10T04:22:06.024Z,990.34
2018-11-10T04:23:06.015Z,990.35
2018-11-10T04:24:06.008Z,990.26
2018-11-10T04:25:06.017Z,990.32
2018-11-10T04:26:05.987Z,990.25
2018-11-10T04:27:05.983Z,990.28
2018-11-10T04:28:05.970Z,990.24
2018-11-10T04:29:05.987Z,990.28
2018-11-10T04:30:05.942Z,990.30
2018-11-10T04:31:05.947Z,990.25
2018-11-10T04:32:05.924Z,990.28
2018-11-10T04:33:05.917Z,990.25
2018-11-10T04:34:05.896Z,990.26
2018-11-10T04:35:05.882Z,990.26
2018-11-10T04:36:05.874Z,990.19
2018-11-10T04:37:05.879Z,990.24
2018-11-10T04:38:05.868Z,990.21
2018-11-10T04:39:05.845Z,990.22
2018-11-10T04:40:05.826Z,990.19
2018-11-10T04:41:05.823Z,990.16
2018-11-10T04:42:05.824Z,990.22
2018-11-10T04:43:05.817Z,990.22
2018-11-10T04:44:05.800Z,990.18
2018-11-10T04:45:05.784Z,990.11
2018-11-10T04:46:05.764Z,990.17
2018-11-10T04:47:05.753Z,990.13
2018-11-10T04:48:05.762Z,990.13
2018-11-10T04:49:05.745Z,990.11
2018-11-10T04:50:05.728Z,990.11
2018-11-10T04:51:05.717Z,990.06
2018-11-10T04:52:05.719Z,990.13
2018-11-10T04:53:05.692Z,990.13
2018-11-10T04:54:05.739Z,990.14
2018-11-10T04:55:05.670Z,990.03
2018-11-10T04:56:05.679Z,990.05
2018-11-10T04:57:05.653Z,990.01
2018-11-10T04:58:05.635Z,989.94
2018-11-10T04:59:05.623Z,990.02
2018-11-10T05:00:05.620Z,989.98
2018-11-10T05:01:05.602Z,989.99
2018-11-10T05:02:05.596Z,989.98
2018-11-10T05:03:05.602Z,989.98
2018-11-10T05:04:05.580Z,989.97
2018-11-10T05:05:05.565Z,989.90
2018-11-10T05:06:05.900Z,990.05
2018-11-10T05:07:05.534Z,990.01
2018-11-10T05:08:05.539Z,989.97
2018-11-10T05:09:05.515Z,989.99
2018-11-10T05:10:05.526Z,990.03
2018-11-10T05:11:05.515Z,989.99
2018-11-10T05:12:05.485Z,989.99
2018-11-10T05:13:05.474Z,990.01
2018-11-10T05:14:05.463Z,989.98
2018-11-10T05:15:05.484Z,989.93
2018-11-10T05:16:05.445Z,989.93
2018-11-10T05:17:05.443Z,989.92
2018-11-10T05:18:05.429Z,989.91
2018-11-10T05:19:05.416Z,989.94
2018-11-10T05:20:05.405Z,989.88
2018-11-10T05:21:05.386Z,989.85
2018-11-10T05:22:05.389Z,989.88
2018-11-10T05:23:05.365Z,989.85
2018-11-10T05:24:05.387Z,989.80
2018-11-10T05:25:05.348Z,989.92
2018-11-10T05:26:05.330Z,989.79
2018-11-10T05:27:05.318Z,989.82
2018-11-10T05:28:05.317Z,989.88
2018-11-10T05:29:05.309Z,989.79
2018-11-10T05:30:05.299Z,989.91
2018-11-10T05:31:05.300Z,989.76
2018-11-10T05:32:05.276Z,989.89
2018-11-10T05:33:05.255Z,989.86
2018-11-10T05:34:05.267Z,989.87
2018-11-10T05:35:05.255Z,989.87
2018-11-10T05:36:05.228Z,989.83
2018-11-10T05:37:05.214Z,989.86
2018-11-10T05:38:05.218Z,989.80
2018-11-10T05:39:05.188Z,989.78
2018-11-10T05:40:05.190Z,989.88
2018-11-10T05:41:05.179Z,989.86
2018-11-10T05:42:05.159Z,989.75
2018-11-10T05:43:05.152Z,989.82
2018-11-10T05:44:05.186Z,989.78
2018-11-10T05:45:05.124Z,989.80
2018-11-10T05:46:05.116Z,989.74
2018-11-10T05:47:05.124Z,989.72
2018-11-10T05:48:05.097Z,989.71
2018-11-10T05:49:05.083Z,989.72
2018-11-10T05:50:05.086Z,989.72
2018-11-10T05:51:05.056Z,989.68
2018-11-10T05:52:05.050Z,989.69
2018-11-10T05:53:05.046Z,989.65
2018-11-10T05:54:05.034Z,989.70
2018-11-10T05:55:05.032Z,989.63
2018-11-10T05:56:05.011Z,989.69
2018-11-10T05:57:05.161Z,989.73
2018-11-10T05:58:04.983Z,989.69
2018-11-10T05:59:04.972Z,989.60
2018-11-10T06:00:04.991Z,989.69
2018-11-10T06:01:04.954Z,989.61
2018-11-10T06:02:04.944Z,989.68
2018-11-10T06:03:04.950Z,989.58
2018-11-10T06:04:04.919Z,989.60
2018-11-10T06:05:04.908Z,989.66
2018-11-10T06:06:04.915Z,989.62
2018-11-10T06:07:04.891Z,989.63
2018-11-10T06:08:04.885Z,989.63
2018-11-10T06:09:04.914Z,989.56
2018-11-10T06:10:05.042Z,989.64
2018-11-10T06:11:04.849Z,989.68
2018-11-10T06:12:04.841Z,989.70
2018-11-10T06:13:04.829Z,989.59
2018-11-10T06:14:04.816Z,989.63
2018-11-10T06:15:04.815Z,989.67
2018-11-10T06:16:04.796Z,989.68
2018-11-10T06:17:04.799Z,989.69
2018-11-10T06:18:04.771Z,989.79
2018-11-10T06:19:04.762Z,989.69
2018-11-10T06:20:04.767Z,989.67
2018-11-10T06:21:04.739Z,989.71
2018-11-10T06:22:04.723Z,989.73
2018-11-10T06:23:04.713Z,989.73
2018-11-10T06:24:04.699Z,989.80
2018-11-10T06:25:04.703Z,989.78
2018-11-10T06:26:04.708Z,989.87
2018-11-10T06:27:04.684Z,989.90
2018-11-10T06:28:04.674Z,989.93
2018-11-10T06:29:04.649Z,989.97
2018-11-10T06:30:04.654Z,989.90
2018-11-10T06:31:04.625Z,989.89
2018-11-10T06:32:04.622Z,989.92
2018-11-10T06:33:04.620Z,989.92
2018-11-10T06:34:04.592Z,989.86
2018-11-10T06:35:04.583Z,989.84
2018-11-10T06:36:04.585Z,989.93
2018-11-10T06:37:04.559Z,990.00
2018-11-10T06:38:04.555Z,990.02
2018-11-10T06:39:04.551Z,989.96
2018-11-10T06:40:04.532Z,990.03
2018-11-10T06:41:04.534Z,990.02
2018-11-10T06:42:04.526Z,990.02
2018-11-10T06:43:04.526Z,990.01
2018-11-10T06:44:04.486Z,990.00
2018-11-10T06:45:04.475Z,990.08
2018-11-10T06:46:04.474Z,990.11
2018-11-10T06:47:04.510Z,990.24
2018-11-10T06:48:04.439Z,990.16
2018-11-10T06:49:04.429Z,990.19
2018-11-10T06:50:04.443Z,990.23
2018-11-10T06:51:04.413Z,990.20
2018-11-10T06:52:04.427Z,990.21
2018-11-10T06:53:04.483Z,990.24
2018-11-10T06:54:04.377Z,990.29
2018-11-10T06:55:04.378Z,990.28
2018-11-10T06:56:04.378Z,990.27
2018-11-10T06:57:04.375Z,990.24
2018-11-10T06:58:04.346Z,990.27
2018-11-10T06:59:04.329Z,990.29
2018-11-10T07:00:04.324Z,990.33
2018-11-10T07:01:04.304Z,990.28
2018-11-10T07:02:04.290Z,990.36
2018-11-10T07:03:04.295Z,990.36
2018-11-10T07:04:04.275Z,990.33
2018-11-10T07:05:04.258Z,990.44
2018-11-10T07:06:04.276Z,990.38
2018-11-10T07:07:04.232Z,990.39
2018-11-10T07:08:04.232Z,990.38
2018-11-10T07:09:04.231Z,990.42
2018-11-10T07:10:04.205Z,990.41
2018-11-10T07:11:04.196Z,990.39
2018-11-10T07:12:04.187Z,990.43
2018-11-10T07:13:04.190Z,990.37
2018-11-10T07:14:04.196Z,990.43
2018-11-10T07:15:04.152Z,990.37
2018-11-10T07:16:04.146Z,990.32
2018-11-10T07:17:04.126Z,990.36
2018-11-10T07:18:04.156Z,990.36
2018-11-10T07:19:04.142Z,990.34
2018-11-10T07:20:04.126Z,990.41
2018-11-10T07:21:04.085Z,990.37
2018-11-10T07:22:04.075Z,990.37
2018-11-10T07:23:04.069Z,990.38
2018-11-10T07:24:04.079Z,990.47
2018-11-10T07:25:04.134Z,990.42
2018-11-10T07:26:04.027Z,990.36
2018-11-10T07:27:04.019Z,990.30
2018-11-10T07:28:04.002Z,990.35
2018-11-10T07:29:04.019Z,990.44
2018-11-10T07:30:03.999Z,990.42
2018-11-10T07:31:03.983Z,990.40
2018-11-10T07:32:04.047Z,990.38
2018-11-10T07:33:03.954Z,990.44
2018-11-10T07:34:03.942Z,990.37
2018-11-10T07:35:03.944Z,990.40
2018-11-10T07:36:03.925Z,990.52
2018-11-10T07:37:03.914Z,990.47
2018-11-10T07:38:03.906Z,990.50
2018-11-10T07:39:03.887Z,990.50
2018-11-10T07:40:03.888Z,990.44
2018-11-10T07:41:03.868Z,990.47
2018-11-10T07:42:03.871Z,990.48
2018-11-10T07:43:03.896Z,990.44
2018-11-10T07:44:03.839Z,990.45
2018-11-10T07:45:03.841Z,990.46
2018-11-10T07:46:03.810Z,990.45
2018-11-10T07:47:03.803Z,990.45
2018-11-10T07:48:03.795Z,990.43
2018-11-10T07:49:03.778Z,990.48
2018-11-10T07:50:03.791Z,990.47
2018-11-10T07:51:03.835Z,990.46
2018-11-10T07:52:03.764Z,990.55
2018-11-10T07:53:03.735Z,990.52
2018-11-10T07:54:03.728Z,990.50
2018-11-10T07:55:03.721Z,990.49
2018-11-10T07:56:03.777Z,990.48
2018-11-10T07:57:03.695Z,990.49
2018-11-10T07:58:03.680Z,990.48
2018-11-10T07:59:03.667Z,990.50
2018-11-10T08:00:03.662Z,990.54
2018-11-10T08:01:03.657Z,990.48
2018-11-10T08:02:03.645Z,990.48
2018-11-10T08:03:03.637Z,990.39
2018-11-10T08:04:03.640Z,990.32
2018-11-10T08:05:03.626Z,990.42
2018-11-10T08:06:03.612Z,990.44
2018-11-10T08:07:03.584Z,990.43
2018-11-10T08:08:03.577Z,990.43
2018-11-10T08:09:03.568Z,990.44
2018-11-10T08:10:03.547Z,990.44
2018-11-10T08:11:03.539Z,990.41
2018-11-10T08:12:03.692Z,990.48
2018-11-10T08:13:03.515Z,990.45
2018-11-10T08:14:03.515Z,990.44
2018-11-10T08:15:03.522Z,990.39
2018-11-10T08:16:03.503Z,990.29
2018-11-10T08:17:03.493Z,990.35
2018-11-10T08:18:03.469Z,990.32
2018-11-10T08:19:03.454Z,990.34
2018-11-10T08:20:03.448Z,990.36
2018-11-10T08:21:03.432Z,990.36
2018-11-10T08:22:03.439Z,990.36
2018-11-10T08:23:03.418Z,990.44
2018-11-10T08:24:03.398Z,990.45
2018-11-10T08:25:03.424Z,990.35
2018-11-10T08:26:03.381Z,990.36
2018-11-10T08:27:03.385Z,990.37
2018-11-10T08:28:03.379Z,990.34
2018-11-10T08:29:03.354Z,990.33
2018-11-10T08:30:03.333Z,990.24
2018-11-10T08:31:03.345Z,990.30
2018-11-10T08:32:03.388Z,990.32
2018-11-10T08:33:03.297Z,990.32
2018-11-10T08:34:03.298Z,990.29
2018-11-10T08:35:03.287Z,990.36
2018-11-10T08:36:03.274Z,990.30
2018-11-10T08:37:03.263Z,990.35
2018-11-10T08:38:03.324Z,990.41
2018-11-10T08:39:03.290Z,990.37
2018-11-10T08:40:03.235Z,990.36
2018-11-10T08:41:03.218Z,990.46
2018-11-10T08:42:03.244Z,990.48
2018-11-10T08:43:03.256Z,990.48
2018-11-10T08:44:03.185Z,990.44
2018-11-10T08:45:03.188Z,990.47
2018-11-10T08:46:03.181Z,990.51
2018-11-10T08:47:03.194Z,990.47
2018-11-10T08:48:03.214Z,990.45
2018-11-10T08:49:03.229Z,990.43
2018-11-10T08:50:03.124Z,990.47
2018-11-10T08:51:03.158Z,990.46
2018-11-10T08:52:03.124Z,990.43
2018-11-10T08:53:03.137Z,990.52
2018-11-10T08:54:03.146Z,990.53
2018-11-10T08:55:03.069Z,990.48
2018-11-10T08:56:03.055Z,990.43
2018-11-10T08:57:03.107Z,990.46
2018-11-10T08:58:03.065Z,990.45
2018-11-10T08:59:03.122Z,990.46
2018-11-10T09:00:03.042Z,990.50
2018-11-10T09:01:03.016Z,990.53
2018-11-10T09:02:02.987Z,990.43
2018-11-10T09:03:02.991Z,990.49
2018-11-10T09:04:02.981Z,990.48
2018-11-10T09:05:02.968Z,990.41
2018-11-10T09:06:02.949Z,990.40
2018-11-10T09:07:02.936Z,990.43
2018-11-10T09:08:02.975Z,990.41
2018-11-10T09:09:02.937Z,990.41
2018-11-10T09:10:02.952Z,990.43
2018-11-10T09:11:02.891Z,990.46
2018-11-10T09:12:02.881Z,990.44
2018-11-10T09:13:02.876Z,990.42
2018-11-10T09:14:02.881Z,990.44
2018-11-10T09:15:02.917Z,990.44
2018-11-10T09:16:02.836Z,990.46
2018-11-10T09:17:02.823Z,990.47
2018-11-10T09:18:02.833Z,990.46
2018-11-10T09:19:02.809Z,990.44
2018-11-10T09:20:02.812Z,990.45
2018-11-10T09:21:02.798Z,990.49
2018-11-10T09:22:02.770Z,990.48
2018-11-10T09:23:02.777Z,990.46
2018-11-10T09:24:02.751Z,990.51
2018-11-10T09:25:02.756Z,990.51
2018-11-10T09:26:02.731Z,990.58
2018-11-10T09:27:02.717Z,990.63
2018-11-10T09:28:02.705Z,990.60
2018-11-10T09:29:02.701Z,990.62
2018-11-10T09:30:02.703Z,990.62
2018-11-10T09:31:02.773Z,990.57
2018-11-10T09:32:02.676Z,990.62
2018-11-10T09:33:02.680Z,990.60
2018-11-10T09:34:02.639Z,990.67
2018-11-10T09:35:02.630Z,990.60
2018-11-10T09:36:02.638Z,990.60
2018-11-10T09:37:02.624Z,990.58
2018-11-10T09:38:02.632Z,990.55
2018-11-10T09:39:02.589Z,990.57
2018-11-10T09:40:02.576Z,990.51
2018-11-10T09:41:02.606Z,990.55
2018-11-10T09:42:02.574Z,990.54
2018-11-10T09:43:02.547Z,990.54
2018-11-10T09:44:02.544Z,990.51
2018-11-10T09:45:02.527Z,990.50
2018-11-10T09:46:02.520Z,990.54
2018-11-10T09:47:02.522Z,990.52
2018-11-10T09:48:02.490Z,990.55
2018-11-10T09:49:02.476Z,990.46
2018-11-10T09:50:02.479Z,990.48
2018-11-10T09:51:02.487Z,990.38
2018-11-10T09:52:02.448Z,990.47
2018-11-10T09:53:02.441Z,990.46
2018-11-10T09:54:02.422Z,990.46
2018-11-10T09:55:02.413Z,990.41
2018-11-10T09:56:02.401Z,990.47
2018-11-10T09:57:02.399Z,990.44
2018-11-10T09:58:02.387Z,990.40
2018-11-10T09:59:02.388Z,990.40
2018-11-10T10:00:02.372Z,990.41
2018-11-10T10:01:02.422Z,990.41
2018-11-10T10:02:02.802Z,990.40
2018-11-10T10:03:02.329Z,990.42
2018-11-10T10:04:02.321Z,990.44
2018-11-10T10:05:02.311Z,990.50
2018-11-10T10:06:02.297Z,990.43
2018-11-10T10:07:02.298Z,990.48
2018-11-10T10:08:02.272Z,990.45
2018-11-10T10:09:02.405Z,990.53
2018-11-10T10:10:02.275Z,990.43
2018-11-10T10:11:02.243Z,990.44
2018-11-10T10:12:02.258Z,990.40
2018-11-10T10:13:02.230Z,990.39
2018-11-10T10:14:02.241Z,990.33
2018-11-10T10:15:02.197Z,990.42
2018-11-10T10:16:02.264Z,990.40
2018-11-10T10:17:02.193Z,990.42
2018-11-10T10:18:02.173Z,990.48
2018-11-10T10:19:02.165Z,990.45
2018-11-10T10:20:02.142Z,990.46
2018-11-10T10:21:02.132Z,990.50
2018-11-10T10:22:02.235Z,990.50
2018-11-10T10:23:02.139Z,990.46
2018-11-10T10:24:02.105Z,990.48
2018-11-10T10:25:02.127Z,990.41
2018-11-10T10:26:02.088Z,990.43
2018-11-10T10:27:02.071Z,990.46
2018-11-10T10:28:02.057Z,990.43
2018-11-10T10:29:02.133Z,990.41
2018-11-10T10:30:02.044Z,990.45
2018-11-10T10:31:02.084Z,990.37
2018-11-10T10:32:02.018Z,990.39
2018-11-10T10:33:02.040Z,990.38
2018-11-10T10:34:02.025Z,990.43
2018-11-10T10:35:02.212Z,990.39
2018-11-10T10:36:01.976Z,990.38
2018-11-10T10:37:01.973Z,990.36
2018-11-10T10:38:01.951Z,990.39
2018-11-10T10:39:01.954Z,990.38
2018-11-10T10:40:01.927Z,990.41
2018-11-10T10:41:01.915Z,990.43
2018-11-10T10:42:01.913Z,990.40
2018-11-10T10:43:02.024Z,990.37
2018-11-10T10:44:01.892Z,990.39
2018-11-10T10:45:01.891Z,990.40
2018-11-10T10:46:01.870Z,990.38
2018-11-10T10:47:01.852Z,990.40
2018-11-10T10:48:01.851Z,990.39
2018-11-10T10:49:01.880Z,990.35
2018-11-10T10:50:01.845Z,990.32
2018-11-10T10:51:01.811Z,990.39
2018-11-10T10:52:01.802Z,990.34
2018-11-10T10:53:01.791Z,990.34
2018-11-10T10:54:01.786Z,990.32
2018-11-10T10:55:01.787Z,990.34
2018-11-10T10:56:01.846Z,990.30
2018-11-10T10:57:01.759Z,990.26
2018-11-10T10:58:01.738Z,990.23
2018-11-10T10:59:01.726Z,990.21
2018-11-10T11:00:01.737Z,990.20
2018-11-10T11:01:01.709Z,990.21
2018-11-10T11:02:01.694Z,990.14
2018-11-10T11:03:01.794Z,990.16
2018-11-10T11:04:01.671Z,990.10
2018-11-10T11:05:01.656Z,990.08
2018-11-10T11:06:01.676Z,990.07
2018-11-10T11:07:01.639Z,990.10
2018-11-10T11:08:01.628Z,990.09
2018-11-10T11:09:01.648Z,990.06
2018-11-10T11:10:01.620Z,990.04
2018-11-10T11:11:01.596Z,989.99
2018-11-10T11:12:01.585Z,990.02
2018-11-10T11:13:01.571Z,989.97
2018-11-10T11:14:01.569Z,990.01
2018-11-10T11:15:01.573Z,990.00
2018-11-10T11:16:01.557Z,989.96
2018-11-10T11:17:01.536Z,990.00
2018-11-10T11:18:01.547Z,990.01
2018-11-10T11:19:01.507Z,990.00
2018-11-10T11:20:01.500Z,989.98
2018-11-10T11:21:01.504Z,990.00
2018-11-10T11:22:01.571Z,989.97
2018-11-10T11:23:01.469Z,989.99
2018-11-10T11:24:01.453Z,989.97
2018-11-10T11:25:01.450Z,989.99
2018-11-10T11:26:01.436Z,989.99
2018-11-10T11:27:01.421Z,989.94
2018-11-10T11:28:01.411Z,989.97
2018-11-10T11:29:01.429Z,989.92
2018-11-10T11:30:01.398Z,989.92
2018-11-10T11:31:01.387Z,989.89
2018-11-10T11:32:01.391Z,989.86
2018-11-10T11:33:01.364Z,989.89
2018-11-10T11:34:01.349Z,989.86
2018-11-10T11:35:01.351Z,989.91
2018-11-10T11:36:01.324Z,989.85
2018-11-10T11:37:01.310Z,989.91
2018-11-10T11:38:01.305Z,989.89
2018-11-10T11:39:01.295Z,989.85
2018-11-10T11:40:01.313Z,989.95
2018-11-10T11:41:01.357Z,989.95
2018-11-10T11:42:01.260Z,989.91
2018-11-10T11:43:01.247Z,989.95
2018-11-10T11:44:01.235Z,989.86
2018-11-10T11:45:01.257Z,989.88
2018-11-10T11:46:01.224Z,989.86
2018-11-10T11:47:01.221Z,989.87
2018-11-10T11:48:01.193Z,989.83
2018-11-10T11:49:01.188Z,989.82
2018-11-10T11:50:01.230Z,989.83
2018-11-10T11:51:01.159Z,989.71
2018-11-10T11:52:01.150Z,989.84
2018-11-10T11:53:01.143Z,989.78
2018-11-10T11:54:01.122Z,989.82
2018-11-10T11:55:01.144Z,989.78
2018-11-10T11:56:01.119Z,989.75
2018-11-10T11:57:01.101Z,989.69
2018-11-10T11:58:01.245Z,989.74
2018-11-10T11:59:01.072Z,989.76
2018-11-10T12:00:01.063Z,989.65
2018-11-10T12:01:01.065Z,989.67
2018-11-10T12:02:01.090Z,989.56
2018-11-10T12:03:01.028Z,989.61
2018-11-10T12:04:01.036Z,989.62
2018-11-10T12:05:01.004Z,989.61
2018-11-10T12:06:01.000Z,989.59
2018-11-10T12:07:00.987Z,989.60
2018-11-10T12:08:00.998Z,989.60
2018-11-10T12:09:00.970Z,989.59
2018-11-10T12:10:00.960Z,989.56
2018-11-10T12:11:00.943Z,989.57
2018-11-10T12:12:00.939Z,989.63
2018-11-10T12:13:00.923Z,989.52
2018-11-10T12:14:00.915Z,989.52
2018-11-10T12:15:00.898Z,989.57
2018-11-10T12:16:00.885Z,989.52
2018-11-10T12:17:01.000Z,989.47
2018-11-10T12:18:00.883Z,989.51
2018-11-10T12:19:00.873Z,989.53
2018-11-10T12:20:00.839Z,989.52
2018-11-10T12:21:00.862Z,989.52
2018-11-10T12:22:00.894Z,989.48
2018-11-10T12:23:00.809Z,989.46
2018-11-10T12:24:00.796Z,989.46
2018-11-10T12:25:00.793Z,989.44
2018-11-10T12:26:00.788Z,989.51
2018-11-10T12:27:00.766Z,989.44
2018-11-10T12:28:00.766Z,989.46